createdAt,value
2023-05-08T00:01:02.818Z,12.61
2023-05-08T00:03:29.940Z,12.57
2023-05-08T00:05:56.957Z,12.52
2023-05-08T00:08:23.911Z,12.49
2023-05-08T00:10:51.091Z,12.45
2023-05-08T00:13:18.144Z,12.43
2023-05-08T00:15:45.306Z,12.47
2023-05-08T00:18:12.727Z,12.50
2023-05-08T00:20:39.846Z,12.49
2023-05-08T00:23:06.653Z,12.47
2023-05-08T00:25:33.655Z,12.59
2023-05-08T00:28:01.011Z,12.62
2023-05-08T00:30:28.022Z,12.63
2023-05-08T00:32:55.076Z,12.61
2023-05-08T00:35:22.100Z,12.48
2023-05-08T00:37:49.051Z,12.44
2023-05-08T00:40:16.227Z,12.40
2023-05-08T00:42:43.282Z,12.45
2023-05-08T00:45:10.758Z,12.47
2023-05-08T00:47:37.950Z,12.45
2023-05-08T00:50:05.541Z,12.48
2023-05-08T00:52:33.271Z,12.43
2023-05-08T00:55:05.209Z,12.35
2023-05-08T00:57:33.022Z,12.34
2023-05-08T01:00:00.329Z,12.30
2023-05-08T01:02:27.666Z,12.29
2023-05-08T01:04:54.622Z,12.28
2023-05-08T01:07:21.549Z,12.28
2023-05-08T01:09:49.114Z,12.25
2023-05-08T01:12:31.198Z,12.23
2023-05-08T01:15:10.225Z,12.22
2023-05-08T01:17:57.821Z,12.22
2023-05-08T01:20:37.228Z,12.16
2023-05-08T01:23:51.795Z,12.12
2023-05-08T01:26:39.731Z,12.07
2023-05-08T01:29:27.842Z,12.04
2023-05-08T01:32:06.913Z,12.03
2023-05-08T01:34:34.244Z,12.00
2023-05-08T01:37:03.505Z,11.99
2023-05-08T01:39:44.171Z,11.97
2023-05-08T01:42:24.261Z,11.98
2023-05-08T01:44:56.818Z,11.95
2023-05-08T01:47:25.083Z,11.93
2023-05-08T01:49:59.023Z,11.92
2023-05-08T01:52:43.397Z,11.95
2023-05-08T01:55:14.386Z,11.97
2023-05-08T01:57:45.266Z,11.97
2023-05-08T02:00:12.908Z,11.94
2023-05-08T02:02:40.325Z,11.91
2023-05-08T02:05:08.066Z,11.87
2023-05-08T02:07:38.019Z,11.80
2023-05-08T02:10:06.115Z,11.72
2023-05-08T02:12:33.255Z,11.68
2023-05-08T02:15:01.052Z,11.64
2023-05-08T02:17:28.032Z,11.67
2023-05-08T02:19:56.185Z,11.67
2023-05-08T02:22:23.428Z,11.66
2023-05-08T02:24:53.317Z,11.63
2023-05-08T02:27:21.350Z,11.62
2023-05-08T02:29:48.391Z,11.62
2023-05-08T02:32:15.342Z,11.63
2023-05-08T02:34:51.120Z,11.62
2023-05-08T02:37:26.772Z,11.61
2023-05-08T02:39:54.145Z,11.58
2023-05-08T02:42:21.129Z,11.57
2023-05-08T02:44:48.102Z,11.56
2023-05-08T02:47:15.041Z,11.58
2023-05-08T02:49:59.988Z,11.56
2023-05-08T02:52:32.588Z,11.54
2023-05-08T02:55:11.693Z,11.50
2023-05-08T02:57:57.084Z,11.47
2023-05-08T03:00:29.133Z,11.37
2023-05-08T03:03:00.249Z,11.33
2023-05-08T03:05:31.758Z,11.30
2023-05-08T03:08:11.298Z,11.23
2023-05-08T03:10:38.583Z,11.22
2023-05-08T03:13:06.707Z,11.21
2023-05-08T03:15:37.827Z,11.19
2023-05-08T03:18:14.599Z,11.17
2023-05-08T03:20:43.729Z,11.24
2023-05-08T03:23:11.173Z,11.29
2023-05-08T03:25:38.780Z,11.31
2023-05-08T03:28:05.961Z,11.32
2023-05-08T03:30:36.298Z,11.37
2023-05-08T03:33:08.049Z,11.44
2023-05-08T03:35:36.550Z,11.51
2023-05-08T03:38:04.466Z,11.51
2023-05-08T03:40:31.413Z,11.49
2023-05-08T03:42:58.749Z,11.46
2023-05-08T03:45:25.728Z,11.48
2023-05-08T03:47:53.961Z,11.46
2023-05-08T03:50:21.712Z,11.46
2023-05-08T03:52:48.658Z,11.45
2023-05-08T03:55:15.715Z,11.43
2023-05-08T03:57:50.426Z,11.43
2023-05-08T04:00:27.216Z,11.43
2023-05-08T04:03:01.103Z,11.44
2023-05-08T04:05:34.663Z,11.42
2023-05-08T04:08:11.761Z,11.43
2023-05-08T04:10:44.393Z,11.42
2023-05-08T04:13:16.130Z,11.42
2023-05-08T04:15:52.177Z,11.45
2023-05-08T04:18:22.979Z,11.45
2023-05-08T04:20:50.037Z,11.49
2023-05-08T04:23:18.660Z,11.58
2023-05-08T04:25:45.916Z,11.61
2023-05-08T04:28:13.006Z,11.64
2023-05-08T04:30:40.255Z,11.67
2023-05-08T04:33:07.586Z,11.73
2023-05-08T04:35:34.739Z,11.78
2023-05-08T04:38:02.423Z,11.77
2023-05-08T04:40:29.438Z,11.80
2023-05-08T04:42:56.809Z,11.90
2023-05-08T04:45:24.097Z,11.95
2023-05-08T04:47:51.137Z,12.00
2023-05-08T04:50:18.158Z,12.07
2023-05-08T04:52:45.125Z,12.11
2023-05-08T04:55:12.253Z,12.11
2023-05-08T04:57:39.554Z,12.12
2023-05-08T05:00:07.217Z,12.17
2023-05-08T05:02:37.291Z,12.20
2023-05-08T05:05:05.906Z,12.19
2023-05-08T05:07:32.833Z,12.20
2023-05-08T05:10:00.456Z,12.22
2023-05-08T05:12:27.761Z,12.22
2023-05-08T05:14:54.750Z,12.23
2023-05-08T05:17:21.781Z,12.26
2023-05-08T05:19:51.443Z,12.30
2023-05-08T05:22:19.220Z,12.35
2023-05-08T05:24:46.318Z,12.38
2023-05-08T05:27:13.664Z,12.43
2023-05-08T05:29:40.776Z,12.55
2023-05-08T05:32:09.357Z,12.57
2023-05-08T05:34:36.770Z,12.60
2023-05-08T05:37:06.905Z,12.64
2023-05-08T05:39:34.068Z,12.72
2023-05-08T05:42:01.297Z,12.80
2023-05-08T05:44:29.200Z,12.84
2023-05-08T05:46:56.864Z,12.85
2023-05-08T05:49:24.451Z,12.84
2023-05-08T05:51:51.430Z,12.86
2023-05-08T05:54:18.737Z,12.86
2023-05-08T05:56:45.811Z,12.89
2023-05-08T05:59:12.767Z,12.99
2023-05-08T06:01:40.042Z,13.09
2023-05-08T06:04:07.226Z,13.16
2023-05-08T06:06:34.248Z,13.27
2023-05-08T06:09:01.570Z,13.40
2023-05-08T06:11:28.557Z,13.50
2023-05-08T06:13:55.548Z,13.48
2023-05-08T06:16:23.383Z,13.52
2023-05-08T06:18:53.375Z,13.57
2023-05-08T06:21:20.460Z,13.62
2023-05-08T06:23:50.745Z,13.64
2023-05-08T06:26:17.675Z,13.62
2023-05-08T06:28:44.646Z,13.62
2023-05-08T06:31:14.584Z,13.69
2023-05-08T06:33:41.556Z,13.74
2023-05-08T06:36:08.897Z,13.82
2023-05-08T06:38:35.931Z,13.83
2023-05-08T06:41:03.041Z,13.77
2023-05-08T06:43:32.869Z,13.78
2023-05-08T06:45:59.980Z,13.81
2023-05-08T06:48:29.532Z,13.81
2023-05-08T06:50:59.803Z,13.78
2023-05-08T06:53:26.682Z,13.82
2023-05-08T06:55:53.655Z,13.92
2023-05-08T06:58:20.798Z,13.97
2023-05-08T07:00:47.838Z,14.04
2023-05-08T07:03:15.059Z,14.01
2023-05-08T07:05:42.111Z,14.03
2023-05-08T07:08:12.258Z,14.08
2023-05-08T07:10:39.192Z,14.15
2023-05-08T07:13:08.898Z,14.21
2023-05-08T07:15:36.191Z,14.25
2023-05-08T07:18:03.707Z,14.27
2023-05-08T07:20:30.752Z,14.33
2023-05-08T07:23:02.302Z,14.34
2023-05-08T07:25:29.831Z,14.35
2023-05-08T07:27:57.444Z,14.35
2023-05-08T07:30:25.186Z,14.34
2023-05-08T07:32:52.292Z,14.40
2023-05-08T07:35:19.809Z,14.45
2023-05-08T07:37:46.874Z,14.50
2023-05-08T07:40:13.946Z,14.55
2023-05-08T07:42:44.375Z,14.59
2023-05-08T07:45:12.433Z,14.65
2023-05-08T07:47:48.917Z,14.73
2023-05-08T07:50:16.074Z,14.79
2023-05-08T07:52:42.995Z,14.86
2023-05-08T07:55:10.400Z,14.92
2023-05-08T07:57:38.235Z,14.93
2023-05-08T08:00:06.814Z,14.99
2023-05-08T08:02:40.929Z,15.06
2023-05-08T08:05:11.320Z,15.13
2023-05-08T08:07:38.841Z,15.16
2023-05-08T08:10:06.904Z,15.12
2023-05-08T08:12:34.312Z,15.02
2023-05-08T08:15:01.306Z,15.04
2023-05-08T08:17:29.025Z,15.06
2023-05-08T08:19:57.283Z,15.15
2023-05-08T08:22:36.634Z,15.28
2023-05-08T08:25:03.820Z,15.35
2023-05-08T08:27:30.678Z,15.42
2023-05-08T08:30:12.722Z,15.51
2023-05-08T08:32:44.067Z,15.65
2023-05-08T08:35:15.317Z,15.77
2023-05-08T08:37:43.142Z,15.85
2023-05-08T08:40:10.434Z,15.96
2023-05-08T08:42:37.907Z,16.11
2023-05-08T08:45:05.412Z,16.23
2023-05-08T08:47:37.528Z,16.26
2023-05-08T08:50:05.575Z,16.25
2023-05-08T08:52:38.550Z,16.24
2023-05-08T08:55:06.350Z,16.27
2023-05-08T08:57:33.986Z,16.33
2023-05-08T09:00:04.845Z,16.41
2023-05-08T09:02:33.313Z,16.47
2023-05-08T09:05:00.594Z,16.47
2023-05-08T09:07:30.104Z,16.48
2023-05-08T09:09:57.080Z,16.50
2023-05-08T09:12:24.013Z,16.49
2023-05-08T09:14:53.837Z,16.51
2023-05-08T09:17:27.042Z,16.37
2023-05-08T09:19:56.800Z,16.43
2023-05-08T09:22:24.502Z,16.49
2023-05-08T09:24:58.859Z,16.53
2023-05-08T09:27:27.332Z,16.53
2023-05-08T09:30:14.666Z,16.56
2023-05-08T09:32:42.937Z,16.51
2023-05-08T09:35:11.831Z,16.51
2023-05-08T09:37:43.202Z,16.51
2023-05-08T09:40:17.307Z,16.59
2023-05-08T09:42:44.638Z,16.71
2023-05-08T09:45:12.345Z,16.76
2023-05-08T09:47:40.289Z,16.76
2023-05-08T09:50:08.816Z,16.77
2023-05-08T09:52:37.949Z,16.83
2023-05-08T09:55:09.611Z,16.91
2023-05-08T09:57:39.360Z,16.94
2023-05-08T10:00:09.995Z,16.86
2023-05-08T10:02:41.113Z,16.87
2023-05-08T10:05:30.234Z,16.89
2023-05-08T10:07:58.126Z,16.85
2023-05-08T10:10:30.839Z,16.86
2023-05-08T10:12:58.936Z,16.84
2023-05-08T10:15:29.865Z,16.84
2023-05-08T10:18:06.640Z,16.90
2023-05-08T10:20:35.337Z,16.94
2023-05-08T10:23:02.405Z,16.88
2023-05-08T10:25:33.683Z,17.03
2023-05-08T10:28:12.103Z,17.30
2023-05-08T10:30:41.627Z,17.50
2023-05-08T10:33:10.122Z,17.63
2023-05-08T10:35:37.525Z,17.71
2023-05-08T10:38:04.682Z,17.76
2023-05-08T10:40:31.799Z,17.82
2023-05-08T10:42:58.868Z,17.94
2023-05-08T10:45:26.229Z,17.98
2023-05-08T10:48:16.926Z,18.08
2023-05-08T10:50:56.682Z,18.22
2023-05-08T10:53:48.440Z,18.30
2023-05-08T10:56:15.473Z,18.39
2023-05-08T10:58:42.514Z,18.56
2023-05-08T11:01:09.713Z,18.75
2023-05-08T11:03:42.773Z,18.91
2023-05-08T11:06:10.104Z,19.07
2023-05-08T11:08:47.099Z,19.09
2023-05-08T11:11:19.882Z,19.07
2023-05-08T11:14:16.303Z,18.88
2023-05-08T11:16:56.566Z,18.81
2023-05-08T11:19:27.163Z,18.78
2023-05-08T11:22:13.830Z,18.76
2023-05-08T11:24:41.720Z,18.68
2023-05-08T11:27:09.031Z,18.57
2023-05-08T11:30:39.376Z,18.38
2023-05-08T11:33:14.227Z,18.12
2023-05-08T11:36:01.330Z,17.99
2023-05-08T11:38:36.486Z,17.89
2023-05-08T11:41:10.592Z,17.87
2023-05-08T11:44:02.622Z,17.91
2023-05-08T11:46:35.894Z,17.92
2023-05-08T11:49:03.192Z,17.85
2023-05-08T11:51:33.450Z,17.80
2023-05-08T11:54:01.179Z,17.78
2023-05-08T11:56:28.203Z,17.75
2023-05-08T11:59:05.707Z,17.60
2023-05-08T12:01:33.192Z,17.62
2023-05-08T12:04:07.072Z,17.64
2023-05-08T12:06:37.906Z,17.63
2023-05-08T12:09:10.957Z,17.61
2023-05-08T12:11:39.470Z,17.72
2023-05-08T12:14:06.463Z,17.72
2023-05-08T12:16:38.863Z,17.74
2023-05-08T12:19:12.790Z,17.69
2023-05-08T12:21:47.835Z,17.68
2023-05-08T12:24:17.521Z,17.66
2023-05-08T12:26:44.475Z,17.58
2023-05-08T12:29:11.952Z,17.55
2023-05-08T12:31:39.144Z,17.60
2023-05-08T12:34:06.477Z,17.56
2023-05-08T12:36:37.039Z,17.51
2023-05-08T12:39:14.523Z,17.50
2023-05-08T12:41:50.203Z,17.53
2023-05-08T12:44:24.694Z,17.58
2023-05-08T12:46:57.271Z,17.64
2023-05-08T12:49:31.759Z,17.68
2023-05-08T12:52:09.239Z,17.73
2023-05-08T12:54:43.928Z,17.76
2023-05-08T12:57:14.655Z,17.70
2023-05-08T12:59:44.976Z,17.66
2023-05-08T13:02:21.198Z,17.65
2023-05-08T13:04:48.578Z,17.63
2023-05-08T13:07:15.891Z,17.64
2023-05-08T13:09:59.984Z,17.64
2023-05-08T13:12:26.916Z,17.60
2023-05-08T13:14:53.805Z,17.51
2023-05-08T13:17:21.382Z,17.50
2023-05-08T13:19:48.351Z,17.55
2023-05-08T13:22:15.438Z,17.52
2023-05-08T13:24:42.380Z,17.46
2023-05-08T13:27:09.585Z,17.44
2023-05-08T13:29:39.814Z,17.43
2023-05-08T13:32:06.777Z,17.36
2023-05-08T13:34:34.880Z,17.33
2023-05-08T13:37:03.149Z,17.28
2023-05-08T13:39:32.975Z,17.23
2023-05-08T13:42:00.009Z,17.19
2023-05-08T13:44:26.987Z,17.16
2023-05-08T13:46:53.934Z,17.08
2023-05-08T13:49:24.538Z,16.99
2023-05-08T13:51:56.459Z,16.94
2023-05-08T13:54:24.411Z,16.88
2023-05-08T13:56:51.379Z,16.83
2023-05-08T13:59:18.592Z,16.74
2023-05-08T14:01:45.705Z,16.74
2023-05-08T14:04:12.726Z,16.72
2023-05-08T14:06:39.915Z,16.44
2023-05-08T14:09:08.317Z,16.40
2023-05-08T14:11:35.295Z,16.35
2023-05-08T14:14:02.338Z,16.44
2023-05-08T14:16:31.039Z,16.46
2023-05-08T14:19:01.352Z,16.52
2023-05-08T14:21:28.397Z,16.44
2023-05-08T14:23:55.778Z,16.43
2023-05-08T14:26:22.935Z,16.45
2023-05-08T14:28:52.651Z,16.35
2023-05-08T14:31:19.773Z,16.38
2023-05-08T14:33:49.755Z,16.40
2023-05-08T14:36:16.863Z,16.39
2023-05-08T14:38:44.008Z,16.31
2023-05-08T14:41:16.376Z,16.30
2023-05-08T14:43:44.068Z,16.33
2023-05-08T14:46:11.217Z,16.30
2023-05-08T14:48:38.516Z,16.31
2023-05-08T14:51:05.779Z,16.20
2023-05-08T14:53:40.680Z,16.20
2023-05-08T14:56:34.613Z,16.21
2023-05-08T14:59:07.694Z,16.20
2023-05-08T15:01:35.438Z,16.25
2023-05-08T15:04:03.194Z,16.12
2023-05-08T15:06:31.156Z,16.05
2023-05-08T15:08:58.227Z,15.95
2023-05-08T15:11:26.170Z,15.85
2023-05-08T15:13:53.072Z,15.84
2023-05-08T15:16:20.001Z,15.85
2023-05-08T15:18:46.927Z,15.85
2023-05-08T15:21:13.851Z,15.76
2023-05-08T15:23:40.927Z,15.72
2023-05-08T15:26:08.478Z,15.68
2023-05-08T15:28:35.467Z,15.64
2023-05-08T15:31:05.015Z,15.60
2023-05-08T15:33:31.989Z,15.55
2023-05-08T15:35:59.109Z,15.47
2023-05-08T15:38:26.062Z,15.46
2023-05-08T15:40:52.997Z,15.39
2023-05-08T15:43:19.835Z,15.36
2023-05-08T15:45:46.778Z,15.31
2023-05-08T15:48:14.042Z,15.18
2023-05-08T15:50:40.889Z,15.15
2023-05-08T15:53:08.134Z,15.08
2023-05-08T15:55:35.016Z,15.02
2023-05-08T15:58:01.910Z,15.00
2023-05-08T16:00:40.963Z,15.04
2023-05-08T16:03:12.156Z,15.05
2023-05-08T16:05:39.755Z,15.04
2023-05-08T16:08:08.384Z,14.97
2023-05-08T16:10:35.520Z,14.88
2023-05-08T16:13:02.486Z,14.80
2023-05-08T16:15:29.416Z,14.78
2023-05-08T16:17:56.472Z,14.68
2023-05-08T16:20:23.583Z,14.57
2023-05-08T16:22:55.514Z,14.51
2023-05-08T16:25:22.559Z,14.47
2023-05-08T16:27:49.762Z,14.44
2023-05-08T16:30:17.318Z,14.33
2023-05-08T16:32:47.156Z,14.30
2023-05-08T16:35:14.730Z,14.28
2023-05-08T16:37:42.236Z,14.27
2023-05-08T16:40:09.578Z,14.20
2023-05-08T16:42:37.209Z,14.04
2023-05-08T16:45:08.152Z,13.96
2023-05-08T16:47:35.132Z,13.89
2023-05-08T16:50:02.187Z,13.85
2023-05-08T16:52:29.390Z,13.82
2023-05-08T16:54:56.262Z,13.79
2023-05-08T16:57:23.420Z,13.77
2023-05-08T16:59:50.311Z,13.79
2023-05-08T17:02:19.168Z,13.78
2023-05-08T17:04:49.495Z,13.78
2023-05-08T17:07:16.699Z,13.74
2023-05-08T17:09:43.750Z,13.69
2023-05-08T17:12:10.784Z,13.67
2023-05-08T17:14:39.517Z,13.53
2023-05-08T17:17:07.047Z,13.62
2023-05-08T17:19:34.923Z,13.65
2023-05-08T17:22:02.183Z,13.51
2023-05-08T17:24:32.724Z,13.49
2023-05-08T17:26:59.877Z,13.40
2023-05-08T17:29:26.962Z,13.44
2023-05-08T17:31:54.052Z,13.46
2023-05-08T17:34:23.046Z,13.58
2023-05-08T17:36:50.308Z,13.54
2023-05-08T17:39:20.059Z,13.52
2023-05-08T17:41:48.973Z,13.58
2023-05-08T17:44:16.668Z,13.60
2023-05-08T17:46:43.866Z,13.56
2023-05-08T17:49:10.867Z,13.58
2023-05-08T17:51:37.846Z,13.47
2023-05-08T17:54:04.769Z,13.44
2023-05-08T17:56:31.967Z,13.48
2023-05-08T17:58:58.874Z,13.49
2023-05-08T18:01:26.195Z,13.44
2023-05-08T18:03:53.549Z,13.44
2023-05-08T18:06:21.015Z,13.42
2023-05-08T18:08:48.129Z,13.34
2023-05-08T18:11:25.055Z,13.41
2023-05-08T18:13:55.021Z,13.44
2023-05-08T18:16:22.322Z,13.18
2023-05-08T18:18:49.809Z,13.16
2023-05-08T18:21:16.993Z,13.25
2023-05-08T18:23:44.233Z,13.31
2023-05-08T18:26:15.356Z,13.29
2023-05-08T18:28:42.477Z,13.12
2023-05-08T18:31:09.625Z,13.16
2023-05-08T18:33:37.421Z,13.15
2023-05-08T18:36:07.214Z,13.13
2023-05-08T18:38:34.768Z,13.13
2023-05-08T18:41:05.291Z,13.02
2023-05-08T18:43:32.330Z,12.98
2023-05-08T18:46:00.686Z,13.03
2023-05-08T18:48:27.923Z,13.02
2023-05-08T18:50:58.748Z,13.06
2023-05-08T18:53:26.003Z,12.99
2023-05-08T18:55:53.099Z,12.96
2023-05-08T18:58:20.015Z,12.90
2023-05-08T19:00:47.153Z,12.90
2023-05-08T19:03:14.324Z,12.87
2023-05-08T19:05:42.019Z,12.89
2023-05-08T19:08:09.031Z,12.88
2023-05-08T19:10:35.955Z,12.82
2023-05-08T19:13:03.047Z,12.83
2023-05-08T19:15:30.032Z,12.78
2023-05-08T19:17:56.998Z,12.74
2023-05-08T19:20:23.988Z,12.80
2023-05-08T19:22:50.887Z,12.74
2023-05-08T19:25:17.776Z,12.71
2023-05-08T19:27:44.757Z,12.62
2023-05-08T19:30:12.407Z,12.62
2023-05-08T19:32:39.635Z,12.57
2023-05-08T19:35:08.492Z,12.50
2023-05-08T19:37:35.736Z,12.52
2023-05-08T19:40:02.898Z,12.47
2023-05-08T19:42:29.780Z,12.40
2023-05-08T19:44:56.777Z,12.37
2023-05-08T19:47:23.713Z,12.29
2023-05-08T19:49:51.473Z,12.29
2023-05-08T19:52:18.499Z,12.39
2023-05-08T19:54:46.823Z,12.52
2023-05-08T19:57:13.794Z,12.53
2023-05-08T19:59:40.747Z,12.54
2023-05-08T20:02:07.667Z,12.49
2023-05-08T20:04:48.593Z,12.44
2023-05-08T20:07:21.483Z,12.46
2023-05-08T20:09:48.437Z,12.46
2023-05-08T20:12:15.441Z,12.47
2023-05-08T20:14:43.018Z,12.40
2023-05-08T20:17:09.927Z,12.41
2023-05-08T20:19:36.855Z,12.39
2023-05-08T20:22:03.912Z,12.35
2023-05-08T20:24:30.823Z,12.34
2023-05-08T20:26:58.049Z,12.30
2023-05-08T20:29:25.020Z,12.26
2023-05-08T20:31:52.086Z,12.25
2023-05-08T20:34:21.243Z,12.27
2023-05-08T20:36:49.661Z,12.33
2023-05-08T20:39:16.590Z,12.32
2023-05-08T20:41:43.558Z,12.29
2023-05-08T20:44:12.565Z,12.37
2023-05-08T20:46:41.004Z,12.31
2023-05-08T20:49:07.972Z,12.38
2023-05-08T20:51:36.543Z,12.27
2023-05-08T20:54:03.644Z,12.19
2023-05-08T20:56:30.648Z,12.12
2023-05-08T20:58:57.925Z,12.16
2023-05-08T21:01:24.898Z,12.28
2023-05-08T21:03:51.960Z,12.16
2023-05-08T21:06:18.851Z,12.11
2023-05-08T21:08:45.807Z,12.17
2023-05-08T21:11:13.029Z,12.17
2023-05-08T21:13:39.930Z,12.31
2023-05-08T21:16:08.459Z,12.33
2023-05-08T21:18:35.545Z,12.29
2023-05-08T21:21:02.749Z,12.23
2023-05-08T21:23:30.243Z,12.25
2023-05-08T21:25:57.284Z,12.28
2023-05-08T21:28:24.249Z,12.27
2023-05-08T21:30:51.197Z,12.25
2023-05-08T21:33:18.123Z,12.26
2023-05-08T21:35:45.328Z,12.25
2023-05-08T21:38:12.286Z,12.22
2023-05-08T21:40:39.481Z,12.16
2023-05-08T21:43:06.487Z,12.15
2023-05-08T21:45:33.546Z,12.23
2023-05-08T21:48:00.843Z,12.23
2023-05-08T21:50:30.786Z,12.12
2023-05-08T21:52:57.901Z,12.15
2023-05-08T21:55:24.986Z,12.11
2023-05-08T21:57:52.147Z,12.06
2023-05-08T22:00:20.436Z,12.07
2023-05-08T22:02:47.458Z,12.04
2023-05-08T22:05:14.771Z,12.07
2023-05-08T22:07:42.186Z,12.03
2023-05-08T22:10:10.553Z,11.97
2023-05-08T22:12:37.619Z,12.00
2023-05-08T22:15:09.516Z,11.94
2023-05-08T22:17:42.267Z,12.00
2023-05-08T22:20:12.262Z,11.99
2023-05-08T22:22:39.135Z,11.93
2023-05-08T22:25:06.737Z,11.94
2023-05-08T22:27:33.794Z,11.94
2023-05-08T22:30:01.546Z,11.96
2023-05-08T22:32:28.809Z,11.85
2023-05-08T22:34:55.955Z,11.72
2023-05-08T22:37:23.143Z,11.78
2023-05-08T22:39:50.079Z,11.78
2023-05-08T22:42:17.064Z,11.79
2023-05-08T22:44:44.073Z,11.72
2023-05-08T22:47:11.347Z,11.77
2023-05-08T22:49:39.612Z,11.75
2023-05-08T22:52:07.264Z,11.79
2023-05-08T22:54:34.191Z,11.80
2023-05-08T22:57:01.810Z,11.79
2023-05-08T22:59:28.805Z,11.75
2023-05-08T23:01:55.897Z,11.84
2023-05-08T23:04:22.968Z,11.81
2023-05-08T23:06:50.064Z,11.74
2023-05-08T23:09:16.982Z,11.71
2023-05-08T23:11:43.930Z,11.66
2023-05-08T23:14:10.830Z,11.65
2023-05-08T23:16:37.841Z,11.66
2023-05-08T23:19:05.219Z,11.62
2023-05-08T23:21:32.318Z,11.58
2023-05-08T23:23:59.485Z,11.59
2023-05-08T23:26:26.458Z,11.55
2023-05-08T23:28:53.460Z,11.48
2023-05-08T23:31:20.509Z,11.43
2023-05-08T23:33:47.545Z,11.35
2023-05-08T23:36:15.552Z,11.46
2023-05-08T23:38:42.563Z,11.44
2023-05-08T23:41:09.984Z,11.45
2023-05-08T23:43:36.990Z,11.46
2023-05-08T23:46:03.938Z,11.49
2023-05-08T23:48:31.045Z,11.51
2023-05-08T23:50:58.067Z,11.49
2023-05-08T23:53:25.004Z,11.32
2023-05-08T23:55:52.849Z,11.19
2023-05-08T23:58:19.880Z,11.17
